sensor_id;sensor_type;location;lat;lon;timestamp;P1;durP1;ratioP1;P2;durP2;ratioP2
5650;SDS011;40241;52.684;9.758;2023-07-28T00:00:38;0.83;;;0.83;;
5650;SDS011;40241;52.684;9.758;2023-07-28T00:03:03;1.30;;;1.13;;
5650;SDS011;40241;52.684;9.758;2023-07-28T00:05:29;5.17;;;1.27;;
5650;SDS011;40241;52.684;9.758;2023-07-28T00:07:54;1.63;;;1.00;;
5650;SDS011;40241;52.684;9.758;2023-07-28T00:10:19;1.80;;;1.67;;
5650;SDS011;40241;52.684;9.758;2023-07-28T00:12:45;1.83;;;1.57;;
5650;SDS011;40241;52.684;9.758;2023-07-28T00:15:10;1.57;;;1.47;;
5650;SDS011;40241;52.684;9.758;2023-07-28T00:17:35;2.80;;;1.40;;
5650;SDS011;40241;52.684;9.758;2023-07-28T00:20:01;1.40;;;1.30;;
5650;SDS011;40241;52.684;9.758;2023-07-28T00:22:26;1.50;;;1.40;;
5650;SDS011;40241;52.684;9.758;2023-07-28T00:24:52;1.50;;;1.40;;
5650;SDS011;40241;52.684;9.758;2023-07-28T00:27:17;2.60;;;2.40;;
5650;SDS011;40241;52.684;9.758;2023-07-28T00:29:43;3.30;;;1.70;;
5650;SDS011;40241;52.684;9.758;2023-07-28T00:32:08;1.60;;;1.50;;
5650;SDS011;40241;52.684;9.758;2023-07-28T00:34:34;2.07;;;1.97;;
5650;SDS011;40241;52.684;9.758;2023-07-28T00:36:59;1.13;;;1.03;;
5650;SDS011;40241;52.684;9.758;2023-07-28T00:39:24;2.87;;;1.37;;
5650;SDS011;40241;52.684;9.758;2023-07-28T00:41:49;2.63;;;2.30;;
5650;SDS011;40241;52.684;9.758;2023-07-28T00:44:15;3.90;;;1.97;;
5650;SDS011;40241;52.684;9.758;2023-07-28T00:46:41;1.83;;;1.33;;
5650;SDS011;40241;52.684;9.758;2023-07-28T00:49:07;1.60;;;1.50;;
5650;SDS011;40241;52.684;9.758;2023-07-28T00:51:33;3.57;;;2.23;;
5650;SDS011;40241;52.684;9.758;2023-07-28T00:54:00;2.27;;;2.07;;
5650;SDS011;40241;52.684;9.758;2023-07-28T00:56:27;4.27;;;2.40;;
5650;SDS011;40241;52.684;9.758;2023-07-28T00:58:52;7.43;;;2.20;;
5650;SDS011;40241;52.684;9.758;2023-07-28T01:01:18;11.40;;;2.77;;
5650;SDS011;40241;52.684;9.758;2023-07-28T01:03:43;2.53;;;2.37;;
5650;SDS011;40241;52.684;9.758;2023-07-28T01:06:20;2.07;;;1.83;;
5650;SDS011;40241;52.684;9.758;2023-07-28T01:09:06;1.83;;;1.40;;
5650;SDS011;40241;52.684;9.758;2023-07-28T01:11:37;1.97;;;1.13;;
5650;SDS011;40241;52.684;9.758;2023-07-28T01:14:02;1.27;;;1.17;;
5650;SDS011;40241;52.684;9.758;2023-07-28T01:16:28;1.53;;;1.43;;
5650;SDS011;40241;52.684;9.758;2023-07-28T01:18:53;2.53;;;2.03;;
5650;SDS011;40241;52.684;9.758;2023-07-28T01:21:22;1.30;;;1.17;;
5650;SDS011;40241;52.684;9.758;2023-07-28T01:24:02;3.67;;;1.80;;
5650;SDS011;40241;52.684;9.758;2023-07-28T01:26:45;4.90;;;1.50;;
5650;SDS011;40241;52.684;9.758;2023-07-28T01:29:11;1.20;;;1.10;;
5650;SDS011;40241;52.684;9.758;2023-07-28T01:31:39;1.97;;;1.77;;
5650;SDS011;40241;52.684;9.758;2023-07-28T01:34:05;2.93;;;1.50;;
5650;SDS011;40241;52.684;9.758;2023-07-28T01:36:30;1.57;;;1.47;;
5650;SDS011;40241;52.684;9.758;2023-07-28T01:38:56;1.60;;;1.50;;
5650;SDS011;40241;52.684;9.758;2023-07-28T01:41:21;1.67;;;1.57;;
5650;SDS011;40241;52.684;9.758;2023-07-28T01:43:46;1.20;;;1.10;;
5650;SDS011;40241;52.684;9.758;2023-07-28T01:46:12;1.73;;;1.60;;
5650;SDS011;40241;52.684;9.758;2023-07-28T01:48:37;1.53;;;1.10;;
5650;SDS011;40241;52.684;9.758;2023-07-28T01:51:02;4.20;;;2.23;;
5650;SDS011;40241;52.684;9.758;2023-07-28T01:53:28;2.13;;;1.90;;
5650;SDS011;40241;52.684;9.758;2023-07-28T01:55:53;2.00;;;1.73;;
5650;SDS011;40241;52.684;9.758;2023-07-28T01:58:18;1.87;;;1.60;;
5650;SDS011;40241;52.684;9.758;2023-07-28T02:00:44;1.63;;;1.50;;
5650;SDS011;40241;52.684;9.758;2023-07-28T02:03:11;1.80;;;1.70;;
5650;SDS011;40241;52.684;9.758;2023-07-28T02:05:37;3.87;;;1.90;;
5650;SDS011;40241;52.684;9.758;2023-07-28T02:08:02;1.80;;;1.60;;
5650;SDS011;40241;52.684;9.758;2023-07-28T02:10:28;1.73;;;1.63;;
5650;SDS011;40241;52.684;9.758;2023-07-28T02:12:54;3.70;;;1.97;;
5650;SDS011;40241;52.684;9.758;2023-07-28T02:15:19;2.00;;;1.80;;
5650;SDS011;40241;52.684;9.758;2023-07-28T02:17:45;4.60;;;2.10;;
5650;SDS011;40241;52.684;9.758;2023-07-28T02:20:10;2.00;;;1.90;;
5650;SDS011;40241;52.684;9.758;2023-07-28T02:22:38;2.10;;;1.90;;
5650;SDS011;40241;52.684;9.758;2023-07-28T02:25:04;2.27;;;2.03;;
5650;SDS011;40241;52.684;9.758;2023-07-28T02:27:29;2.37;;;1.40;;
5650;SDS011;40241;52.684;9.758;2023-07-28T02:29:55;2.20;;;2.00;;
5650;SDS011;40241;52.684;9.758;2023-07-28T02:32:20;1.43;;;1.33;;
5650;SDS011;40241;52.684;9.758;2023-07-28T02:34:46;2.23;;;1.77;;
5650;SDS011;40241;52.684;9.758;2023-07-28T02:37:11;1.73;;;1.60;;
5650;SDS011;40241;52.684;9.758;2023-07-28T02:39:36;2.03;;;1.93;;
5650;SDS011;40241;52.684;9.758;2023-07-28T02:42:02;1.83;;;1.70;;
5650;SDS011;40241;52.684;9.758;2023-07-28T02:44:27;3.30;;;2.93;;
5650;SDS011;40241;52.684;9.758;2023-07-28T02:46:52;2.60;;;2.30;;
5650;SDS011;40241;52.684;9.758;2023-07-28T02:49:18;1.97;;;1.87;;
5650;SDS011;40241;52.684;9.758;2023-07-28T02:51:43;2.23;;;2.07;;
5650;SDS011;40241;52.684;9.758;2023-07-28T02:54:08;2.90;;;2.20;;
5650;SDS011;40241;52.684;9.758;2023-07-28T02:56:34;3.37;;;2.67;;
5650;SDS011;40241;52.684;9.758;2023-07-28T02:59:02;4.80;;;2.53;;
5650;SDS011;40241;52.684;9.758;2023-07-28T03:01:31;5.67;;;5.10;;
5650;SDS011;40241;52.684;9.758;2023-07-28T03:04:03;2.70;;;2.50;;
5650;SDS011;40241;52.684;9.758;2023-07-28T03:06:28;5.97;;;4.77;;
5650;SDS011;40241;52.684;9.758;2023-07-28T03:08:54;2.67;;;2.47;;
5650;SDS011;40241;52.684;9.758;2023-07-28T03:11:20;4.47;;;2.77;;
5650;SDS011;40241;52.684;9.758;2023-07-28T03:13:45;3.80;;;3.27;;
5650;SDS011;40241;52.684;9.758;2023-07-28T03:16:10;4.70;;;3.97;;
5650;SDS011;40241;52.684;9.758;2023-07-28T03:18:36;4.50;;;3.30;;
5650;SDS011;40241;52.684;9.758;2023-07-28T03:21:01;4.07;;;3.77;;
5650;SDS011;40241;52.684;9.758;2023-07-28T03:23:27;3.80;;;3.50;;
5650;SDS011;40241;52.684;9.758;2023-07-28T03:25:52;4.33;;;3.90;;
5650;SDS011;40241;52.684;9.758;2023-07-28T03:28:17;5.23;;;4.40;;
5650;SDS011;40241;52.684;9.758;2023-07-28T03:30:43;4.97;;;4.27;;
5650;SDS011;40241;52.684;9.758;2023-07-28T03:33:08;4.70;;;3.80;;
5650;SDS011;40241;52.684;9.758;2023-07-28T03:35:34;5.23;;;3.57;;
5650;SDS011;40241;52.684;9.758;2023-07-28T03:37:59;4.10;;;3.70;;
5650;SDS011;40241;52.684;9.758;2023-07-28T03:40:24;4.20;;;3.80;;
5650;SDS011;40241;52.684;9.758;2023-07-28T03:42:50;5.27;;;4.77;;
5650;SDS011;40241;52.684;9.758;2023-07-28T03:45:15;6.13;;;3.50;;
5650;SDS011;40241;52.684;9.758;2023-07-28T03:47:41;3.93;;;3.20;;
5650;SDS011;40241;52.684;9.758;2023-07-28T03:50:07;3.97;;;3.37;;
5650;SDS011;40241;52.684;9.758;2023-07-28T03:52:42;3.57;;;3.30;;
5650;SDS011;40241;52.684;9.758;2023-07-28T03:55:07;4.23;;;2.90;;
5650;SDS011;40241;52.684;9.758;2023-07-28T03:57:32;3.30;;;2.93;;
5650;SDS011;40241;52.684;9.758;2023-07-28T03:59:58;3.60;;;3.30;;
5650;SDS011;40241;52.684;9.758;2023-07-28T04:02:23;2.93;;;2.73;;
5650;SDS011;40241;52.684;9.758;2023-07-28T04:04:58;3.07;;;2.87;;
5650;SDS011;40241;52.684;9.758;2023-07-28T04:07:23;3.23;;;2.90;;
5650;SDS011;40241;52.684;9.758;2023-07-28T04:09:48;3.90;;;3.40;;
5650;SDS011;40241;52.684;9.758;2023-07-28T04:12:14;4.90;;;4.50;;
5650;SDS011;40241;52.684;9.758;2023-07-28T04:14:39;4.97;;;4.13;;
5650;SDS011;40241;52.684;9.758;2023-07-28T04:17:05;4.43;;;3.77;;
5650;SDS011;40241;52.684;9.758;2023-07-28T04:19:31;3.90;;;3.50;;
5650;SDS011;40241;52.684;9.758;2023-07-28T04:21:58;3.90;;;3.20;;
5650;SDS011;40241;52.684;9.758;2023-07-28T04:24:24;4.80;;;3.50;;
5650;SDS011;40241;52.684;9.758;2023-07-28T04:26:50;6.43;;;3.40;;
5650;SDS011;40241;52.684;9.758;2023-07-28T04:29:15;6.00;;;3.97;;
5650;SDS011;40241;52.684;9.758;2023-07-28T04:31:41;4.20;;;3.60;;
5650;SDS011;40241;52.684;9.758;2023-07-28T04:34:06;4.00;;;3.60;;
5650;SDS011;40241;52.684;9.758;2023-07-28T04:36:32;3.90;;;3.23;;
5650;SDS011;40241;52.684;9.758;2023-07-28T04:38:57;3.37;;;3.07;;
5650;SDS011;40241;52.684;9.758;2023-07-28T04:41:22;5.00;;;4.17;;
5650;SDS011;40241;52.684;9.758;2023-07-28T04:43:48;5.87;;;4.83;;
5650;SDS011;40241;52.684;9.758;2023-07-28T04:46:13;4.13;;;3.77;;
5650;SDS011;40241;52.684;9.758;2023-07-28T04:48:39;4.60;;;3.80;;
5650;SDS011;40241;52.684;9.758;2023-07-28T04:51:04;4.57;;;4.07;;
5650;SDS011;40241;52.684;9.758;2023-07-28T04:53:29;4.70;;;4.10;;
5650;SDS011;40241;52.684;9.758;2023-07-28T04:55:55;4.77;;;4.27;;
5650;SDS011;40241;52.684;9.758;2023-07-28T04:58:20;5.80;;;3.97;;
5650;SDS011;40241;52.684;9.758;2023-07-28T05:00:46;6.87;;;5.30;;
5650;SDS011;40241;52.684;9.758;2023-07-28T05:03:11;4.60;;;3.40;;
5650;SDS011;40241;52.684;9.758;2023-07-28T05:05:37;4.30;;;3.63;;
5650;SDS011;40241;52.684;9.758;2023-07-28T05:08:02;3.83;;;3.50;;
5650;SDS011;40241;52.684;9.758;2023-07-28T05:10:27;3.60;;;3.27;;
5650;SDS011;40241;52.684;9.758;2023-07-28T05:12:53;4.40;;;3.40;;
5650;SDS011;40241;52.684;9.758;2023-07-28T05:15:18;7.70;;;4.53;;
5650;SDS011;40241;52.684;9.758;2023-07-28T05:17:43;3.67;;;3.30;;
5650;SDS011;40241;52.684;9.758;2023-07-28T05:20:09;4.67;;;3.97;;
5650;SDS011;40241;52.684;9.758;2023-07-28T05:22:34;4.53;;;4.07;;
5650;SDS011;40241;52.684;9.758;2023-07-28T05:25:00;5.73;;;4.83;;
5650;SDS011;40241;52.684;9.758;2023-07-28T05:27:25;7.37;;;6.63;;
5650;SDS011;40241;52.684;9.758;2023-07-28T05:29:50;3.63;;;3.37;;
5650;SDS011;40241;52.684;9.758;2023-07-28T05:32:16;5.77;;;4.07;;
5650;SDS011;40241;52.684;9.758;2023-07-28T05:34:44;8.23;;;6.03;;
5650;SDS011;40241;52.684;9.758;2023-07-28T05:37:09;6.57;;;5.10;;
5650;SDS011;40241;52.684;9.758;2023-07-28T05:39:35;3.20;;;2.60;;
5650;SDS011;40241;52.684;9.758;2023-07-28T05:42:01;4.97;;;3.47;;
5650;SDS011;40241;52.684;9.758;2023-07-28T05:44:26;4.43;;;3.97;;
5650;SDS011;40241;52.684;9.758;2023-07-28T05:46:51;5.33;;;3.97;;
5650;SDS011;40241;52.684;9.758;2023-07-28T05:49:17;3.67;;;3.30;;
5650;SDS011;40241;52.684;9.758;2023-07-28T05:51:42;6.73;;;5.00;;
5650;SDS011;40241;52.684;9.758;2023-07-28T05:54:07;11.20;;;7.00;;
5650;SDS011;40241;52.684;9.758;2023-07-28T05:56:33;13.43;;;10.20;;
5650;SDS011;40241;52.684;9.758;2023-07-28T05:58:59;14.10;;;6.47;;
5650;SDS011;40241;52.684;9.758;2023-07-28T06:01:24;6.33;;;4.47;;
5650;SDS011;40241;52.684;9.758;2023-07-28T06:03:52;5.67;;;4.67;;
5650;SDS011;40241;52.684;9.758;2023-07-28T06:06:20;12.10;;;7.87;;
5650;SDS011;40241;52.684;9.758;2023-07-28T06:08:46;4.50;;;4.07;;
5650;SDS011;40241;52.684;9.758;2023-07-28T06:11:11;5.07;;;4.60;;
5650;SDS011;40241;52.684;9.758;2023-07-28T06:13:36;13.77;;;8.93;;
5650;SDS011;40241;52.684;9.758;2023-07-28T06:16:02;8.60;;;6.53;;
5650;SDS011;40241;52.684;9.758;2023-07-28T06:18:27;8.67;;;7.80;;
5650;SDS011;40241;52.684;9.758;2023-07-28T06:20:52;7.40;;;5.90;;
5650;SDS011;40241;52.684;9.758;2023-07-28T06:23:18;6.60;;;6.00;;
5650;SDS011;40241;52.684;9.758;2023-07-28T06:25:43;9.63;;;7.87;;
5650;SDS011;40241;52.684;9.758;2023-07-28T06:28:10;7.90;;;6.20;;
5650;SDS011;40241;52.684;9.758;2023-07-28T06:30:36;8.53;;;5.83;;
5650;SDS011;40241;52.684;9.758;2023-07-28T06:33:03;6.57;;;5.43;;
5650;SDS011;40241;52.684;9.758;2023-07-28T06:35:30;12.73;;;6.60;;
5650;SDS011;40241;52.684;9.758;2023-07-28T06:37:55;14.97;;;11.50;;
5650;SDS011;40241;52.684;9.758;2023-07-28T06:40:21;10.83;;;7.63;;
5650;SDS011;40241;52.684;9.758;2023-07-28T06:42:46;21.33;;;12.57;;
5650;SDS011;40241;52.684;9.758;2023-07-28T06:45:11;13.40;;;9.27;;
5650;SDS011;40241;52.684;9.758;2023-07-28T06:47:37;15.93;;;9.50;;
5650;SDS011;40241;52.684;9.758;2023-07-28T06:50:03;11.63;;;7.43;;
5650;SDS011;40241;52.684;9.758;2023-07-28T06:52:30;6.80;;;5.10;;
5650;SDS011;40241;52.684;9.758;2023-07-28T06:54:55;7.33;;;6.43;;
5650;SDS011;40241;52.684;9.758;2023-07-28T06:57:21;9.77;;;7.33;;
5650;SDS011;40241;52.684;9.758;2023-07-28T06:59:46;14.53;;;9.17;;
5650;SDS011;40241;52.684;9.758;2023-07-28T07:02:12;9.67;;;7.57;;
5650;SDS011;40241;52.684;9.758;2023-07-28T07:04:37;28.37;;;14.90;;
5650;SDS011;40241;52.684;9.758;2023-07-28T07:07:03;8.70;;;6.27;;
5650;SDS011;40241;52.684;9.758;2023-07-28T07:09:28;8.27;;;6.70;;
5650;SDS011;40241;52.684;9.758;2023-07-28T07:11:54;13.03;;;8.37;;
5650;SDS011;40241;52.684;9.758;2023-07-28T07:14:20;12.37;;;9.20;;
5650;SDS011;40241;52.684;9.758;2023-07-28T07:16:45;38.63;;;15.80;;
5650;SDS011;40241;52.684;9.758;2023-07-28T07:19:10;5.73;;;5.20;;
5650;SDS011;40241;52.684;9.758;2023-07-28T07:21:36;5.13;;;4.50;;
5650;SDS011;40241;52.684;9.758;2023-07-28T07:24:05;13.63;;;7.13;;
5650;SDS011;40241;52.684;9.758;2023-07-28T07:26:30;8.67;;;7.83;;
5650;SDS011;40241;52.684;9.758;2023-07-28T07:28:56;8.73;;;7.87;;
5650;SDS011;40241;52.684;9.758;2023-07-28T07:31:21;19.33;;;11.03;;
5650;SDS011;40241;52.684;9.758;2023-07-28T07:33:47;8.47;;;6.30;;
5650;SDS011;40241;52.684;9.758;2023-07-28T07:36:13;22.23;;;11.70;;
5650;SDS011;40241;52.684;9.758;2023-07-28T07:38:39;13.50;;;10.70;;
5650;SDS011;40241;52.684;9.758;2023-07-28T07:41:06;12.37;;;6.43;;
5650;SDS011;40241;52.684;9.758;2023-07-28T07:43:31;25.07;;;7.10;;
5650;SDS011;40241;52.684;9.758;2023-07-28T07:45:56;23.07;;;13.63;;
5650;SDS011;40241;52.684;9.758;2023-07-28T07:48:22;32.43;;;16.87;;
5650;SDS011;40241;52.684;9.758;2023-07-28T07:50:47;8.53;;;7.73;;
5650;SDS011;40241;52.684;9.758;2023-07-28T07:53:12;12.60;;;9.50;;
5650;SDS011;40241;52.684;9.758;2023-07-28T07:55:38;14.43;;;9.90;;
5650;SDS011;40241;52.684;9.758;2023-07-28T07:58:03;9.27;;;6.60;;
5650;SDS011;40241;52.684;9.758;2023-07-28T08:00:28;15.10;;;6.37;;
5650;SDS011;40241;52.684;9.758;2023-07-28T08:02:54;3.70;;;3.47;;
5650;SDS011;40241;52.684;9.758;2023-07-28T08:05:19;9.63;;;6.40;;
5650;SDS011;40241;52.684;9.758;2023-07-28T08:07:46;10.57;;;5.97;;
5650;SDS011;40241;52.684;9.758;2023-07-28T08:10:12;3.20;;;3.00;;
5650;SDS011;40241;52.684;9.758;2023-07-28T08:12:38;5.03;;;3.27;;
5650;SDS011;40241;52.684;9.758;2023-07-28T08:15:03;5.30;;;4.90;;
5650;SDS011;40241;52.684;9.758;2023-07-28T08:17:29;3.77;;;3.40;;
5650;SDS011;40241;52.684;9.758;2023-07-28T08:19:54;3.83;;;3.00;;
5650;SDS011;40241;52.684;9.758;2023-07-28T08:22:19;5.00;;;4.67;;
5650;SDS011;40241;52.684;9.758;2023-07-28T08:24:45;14.77;;;10.37;;
5650;SDS011;40241;52.684;9.758;2023-07-28T08:27:10;5.50;;;5.00;;
5650;SDS011;40241;52.684;9.758;2023-07-28T08:29:35;8.30;;;6.43;;
5650;SDS011;40241;52.684;9.758;2023-07-28T08:32:01;7.73;;;5.93;;
5650;SDS011;40241;52.684;9.758;2023-07-28T08:34:27;6.60;;;5.97;;
5650;SDS011;40241;52.684;9.758;2023-07-28T08:36:52;8.10;;;7.27;;
5650;SDS011;40241;52.684;9.758;2023-07-28T08:39:20;14.10;;;9.07;;
5650;SDS011;40241;52.684;9.758;2023-07-28T08:41:56;6.40;;;5.87;;
5650;SDS011;40241;52.684;9.758;2023-07-28T08:44:22;9.43;;;8.03;;
5650;SDS011;40241;52.684;9.758;2023-07-28T08:46:48;17.27;;;10.97;;
5650;SDS011;40241;52.684;9.758;2023-07-28T08:49:13;7.43;;;6.73;;
5650;SDS011;40241;52.684;9.758;2023-07-28T08:51:42;10.77;;;7.13;;
5650;SDS011;40241;52.684;9.758;2023-07-28T08:54:17;8.90;;;6.93;;
5650;SDS011;40241;52.684;9.758;2023-07-28T08:56:43;7.83;;;6.63;;
5650;SDS011;40241;52.684;9.758;2023-07-28T08:59:09;7.90;;;6.10;;
5650;SDS011;40241;52.684;9.758;2023-07-28T09:01:40;10.57;;;8.57;;
5650;SDS011;40241;52.684;9.758;2023-07-28T09:04:10;12.43;;;8.40;;
5650;SDS011;40241;52.684;9.758;2023-07-28T09:06:36;8.50;;;7.47;;
5650;SDS011;40241;52.684;9.758;2023-07-28T09:09:01;9.90;;;7.70;;
5650;SDS011;40241;52.684;9.758;2023-07-28T09:11:27;7.83;;;6.97;;
5650;SDS011;40241;52.684;9.758;2023-07-28T09:13:53;15.63;;;8.03;;
5650;SDS011;40241;52.684;9.758;2023-07-28T09:16:20;8.40;;;7.57;;
5650;SDS011;40241;52.684;9.758;2023-07-28T09:18:49;6.73;;;6.13;;
5650;SDS011;40241;52.684;9.758;2023-07-28T09:21:15;19.30;;;11.93;;
5650;SDS011;40241;52.684;9.758;2023-07-28T09:23:44;11.00;;;7.00;;
5650;SDS011;40241;52.684;9.758;2023-07-28T09:26:10;8.03;;;7.33;;
5650;SDS011;40241;52.684;9.758;2023-07-28T09:28:39;24.67;;;18.67;;
5650;SDS011;40241;52.684;9.758;2023-07-28T09:31:06;38.23;;;21.23;;
5650;SDS011;40241;52.684;9.758;2023-07-28T09:33:33;24.90;;;13.83;;
5650;SDS011;40241;52.684;9.758;2023-07-28T09:36:07;46.47;;;23.90;;
5650;SDS011;40241;52.684;9.758;2023-07-28T09:38:37;52.77;;;34.07;;
5650;SDS011;40241;52.684;9.758;2023-07-28T09:41:04;15.83;;;10.87;;
5650;SDS011;40241;52.684;9.758;2023-07-28T09:43:34;27.67;;;13.03;;
5650;SDS011;40241;52.684;9.758;2023-07-28T09:46:02;25.23;;;15.10;;
5650;SDS011;40241;52.684;9.758;2023-07-28T09:48:29;23.87;;;14.77;;
5650;SDS011;40241;52.684;9.758;2023-07-28T09:50:57;32.87;;;22.23;;
5650;SDS011;40241;52.684;9.758;2023-07-28T09:53:24;78.97;;;41.77;;
5650;SDS011;40241;52.684;9.758;2023-07-28T09:55:53;80.20;;;42.97;;
5650;SDS011;40241;52.684;9.758;2023-07-28T09:58:20;59.53;;;29.20;;
5650;SDS011;40241;52.684;9.758;2023-07-28T10:00:49;37.20;;;19.93;;
5650;SDS011;40241;52.684;9.758;2023-07-28T10:03:16;11.43;;;9.40;;
5650;SDS011;40241;52.684;9.758;2023-07-28T10:05:41;15.50;;;11.20;;
5650;SDS011;40241;52.684;9.758;2023-07-28T10:08:08;10.07;;;8.07;;
5650;SDS011;40241;52.684;9.758;2023-07-28T10:10:34;7.97;;;6.63;;
5650;SDS011;40241;52.684;9.758;2023-07-28T10:13:00;7.03;;;6.37;;
5650;SDS011;40241;52.684;9.758;2023-07-28T10:15:30;6.40;;;5.27;;
5650;SDS011;40241;52.684;9.758;2023-07-28T10:17:57;7.07;;;6.47;;
5650;SDS011;40241;52.684;9.758;2023-07-28T10:20:45;5.00;;;3.50;;
5650;SDS011;40241;52.684;9.758;2023-07-28T10:23:17;3.60;;;3.40;;
5650;SDS011;40241;52.684;9.758;2023-07-28T10:25:46;5.70;;;5.17;;
5650;SDS011;40241;52.684;9.758;2023-07-28T10:28:53;4.47;;;4.13;;
5650;SDS011;40241;52.684;9.758;2023-07-28T10:31:12;3.60;;;3.30;;
5650;SDS011;40241;52.684;9.758;2023-07-28T10:33:38;2.63;;;2.53;;
5650;SDS011;40241;52.684;9.758;2023-07-28T10:36:18;3.40;;;3.10;;
5650;SDS011;40241;52.684;9.758;2023-07-28T10:38:59;3.03;;;2.87;;
5650;SDS011;40241;52.684;9.758;2023-07-28T10:41:34;3.67;;;3.47;;
5650;SDS011;40241;52.684;9.758;2023-07-28T10:44:00;3.57;;;3.30;;
5650;SDS011;40241;52.684;9.758;2023-07-28T10:46:26;3.60;;;3.30;;
5650;SDS011;40241;52.684;9.758;2023-07-28T10:48:51;2.80;;;2.60;;
5650;SDS011;40241;52.684;9.758;2023-07-28T10:51:24;2.43;;;2.33;;
5650;SDS011;40241;52.684;9.758;2023-07-28T10:53:56;2.53;;;2.33;;
5650;SDS011;40241;52.684;9.758;2023-07-28T10:56:22;2.50;;;2.30;;
5650;SDS011;40241;52.684;9.758;2023-07-28T10:58:55;2.40;;;2.23;;
5650;SDS011;40241;52.684;9.758;2023-07-28T11:01:30;2.63;;;2.43;;
5650;SDS011;40241;52.684;9.758;2023-07-28T11:04:26;2.20;;;2.10;;
5650;SDS011;40241;52.684;9.758;2023-07-28T11:06:50;3.90;;;2.27;;
5650;SDS011;40241;52.684;9.758;2023-07-28T11:09:18;2.80;;;2.50;;
5650;SDS011;40241;52.684;9.758;2023-07-28T11:11:46;2.50;;;2.30;;
5650;SDS011;40241;52.684;9.758;2023-07-28T11:14:12;2.27;;;2.10;;
5650;SDS011;40241;52.684;9.758;2023-07-28T11:16:41;2.57;;;2.33;;
5650;SDS011;40241;52.684;9.758;2023-07-28T11:19:07;2.50;;;2.40;;
5650;SDS011;40241;52.684;9.758;2023-07-28T11:21:37;2.23;;;2.10;;
5650;SDS011;40241;52.684;9.758;2023-07-28T11:24:03;2.50;;;2.10;;
5650;SDS011;40241;52.684;9.758;2023-07-28T11:26:29;2.33;;;2.23;;
5650;SDS011;40241;52.684;9.758;2023-07-28T11:28:55;2.50;;;2.10;;
5650;SDS011;40241;52.684;9.758;2023-07-28T11:31:24;2.00;;;1.90;;
5650;SDS011;40241;52.684;9.758;2023-07-28T11:33:56;2.30;;;1.90;;
5650;SDS011;40241;52.684;9.758;2023-07-28T11:36:22;2.13;;;2.03;;
5650;SDS011;40241;52.684;9.758;2023-07-28T11:38:49;2.30;;;2.20;;
5650;SDS011;40241;52.684;9.758;2023-07-28T11:41:14;2.30;;;2.20;;
5650;SDS011;40241;52.684;9.758;2023-07-28T11:43:49;2.23;;;2.03;;
5650;SDS011;40241;52.684;9.758;2023-07-28T11:49:31;2.07;;;1.97;;
5650;SDS011;40241;52.684;9.758;2023-07-28T11:51:57;2.47;;;2.27;;
5650;SDS011;40241;52.684;9.758;2023-07-28T11:54:27;2.80;;;2.60;;
5650;SDS011;40241;52.684;9.758;2023-07-28T11:56:57;2.50;;;2.30;;
5650;SDS011;40241;52.684;9.758;2023-07-28T11:59:37;2.67;;;2.53;;
5650;SDS011;40241;52.684;9.758;2023-07-28T12:02:06;2.23;;;2.13;;
5650;SDS011;40241;52.684;9.758;2023-07-28T12:04:46;3.80;;;2.10;;
5650;SDS011;40241;52.684;9.758;2023-07-28T12:07:16;2.70;;;2.60;;
5650;SDS011;40241;52.684;9.758;2023-07-28T12:09:54;2.57;;;2.40;;
5650;SDS011;40241;52.684;9.758;2023-07-28T12:12:41;2.00;;;1.90;;
5650;SDS011;40241;52.684;9.758;2023-07-28T12:15:34;2.13;;;2.00;;
5650;SDS011;40241;52.684;9.758;2023-07-28T12:18:14;2.63;;;2.43;;
5650;SDS011;40241;52.684;9.758;2023-07-28T12:20:45;2.33;;;2.23;;
5650;SDS011;40241;52.684;9.758;2023-07-28T12:23:12;3.53;;;3.23;;
5650;SDS011;40241;52.684;9.758;2023-07-28T12:25:40;2.20;;;2.00;;
5650;SDS011;40241;52.684;9.758;2023-07-28T12:28:31;2.33;;;2.20;;
5650;SDS011;40241;52.684;9.758;2023-07-28T12:31:08;2.50;;;2.27;;
5650;SDS011;40241;52.684;9.758;2023-07-28T12:33:56;2.63;;;1.83;;
5650;SDS011;40241;52.684;9.758;2023-07-28T12:36:22;2.33;;;2.10;;
5650;SDS011;40241;52.684;9.758;2023-07-28T12:38:52;2.77;;;2.23;;
5650;SDS011;40241;52.684;9.758;2023-07-28T12:41:18;2.73;;;2.30;;
5650;SDS011;40241;52.684;9.758;2023-07-28T12:43:43;2.27;;;2.13;;
5650;SDS011;40241;52.684;9.758;2023-07-28T12:46:18;3.30;;;1.77;;
5650;SDS011;40241;52.684;9.758;2023-07-28T12:48:44;3.17;;;2.97;;
5650;SDS011;40241;52.684;9.758;2023-07-28T12:51:39;2.90;;;2.63;;
5650;SDS011;40241;52.684;9.758;2023-07-28T12:54:11;2.40;;;2.20;;
5650;SDS011;40241;52.684;9.758;2023-07-28T12:56:43;2.57;;;2.27;;
5650;SDS011;40241;52.684;9.758;2023-07-28T12:59:50;2.47;;;2.37;;
5650;SDS011;40241;52.684;9.758;2023-07-28T13:02:40;2.93;;;2.43;;
5650;SDS011;40241;52.684;9.758;2023-07-28T13:05:06;4.50;;;3.00;;
5650;SDS011;40241;52.684;9.758;2023-07-28T13:07:35;4.17;;;2.77;;
5650;SDS011;40241;52.684;9.758;2023-07-28T13:10:01;5.27;;;2.90;;
5650;SDS011;40241;52.684;9.758;2023-07-28T13:12:32;2.40;;;2.20;;
5650;SDS011;40241;52.684;9.758;2023-07-28T13:15:01;3.20;;;2.83;;
5650;SDS011;40241;52.684;9.758;2023-07-28T13:17:34;3.20;;;2.33;;
5650;SDS011;40241;52.684;9.758;2023-07-28T13:19:59;2.00;;;1.90;;
5650;SDS011;40241;52.684;9.758;2023-07-28T13:22:25;3.33;;;2.50;;
5650;SDS011;40241;52.684;9.758;2023-07-28T13:24:51;3.50;;;2.27;;
5650;SDS011;40241;52.684;9.758;2023-07-28T13:27:24;2.40;;;2.30;;
5650;SDS011;40241;52.684;9.758;2023-07-28T13:33:24;2.67;;;2.47;;
5650;SDS011;40241;52.684;9.758;2023-07-28T13:35:49;2.90;;;2.70;;
5650;SDS011;40241;52.684;9.758;2023-07-28T13:38:15;2.50;;;2.30;;
5650;SDS011;40241;52.684;9.758;2023-07-28T13:40:40;2.63;;;2.43;;
5650;SDS011;40241;52.684;9.758;2023-07-28T13:43:05;3.27;;;2.47;;
5650;SDS011;40241;52.684;9.758;2023-07-28T13:45:31;2.70;;;2.50;;
5650;SDS011;40241;52.684;9.758;2023-07-28T13:47:56;2.93;;;2.73;;
5650;SDS011;40241;52.684;9.758;2023-07-28T13:50:21;3.83;;;2.90;;
5650;SDS011;40241;52.684;9.758;2023-07-28T13:52:48;2.50;;;2.40;;
5650;SDS011;40241;52.684;9.758;2023-07-28T13:55:14;2.83;;;2.43;;
5650;SDS011;40241;52.684;9.758;2023-07-28T13:57:39;2.30;;;2.20;;
5650;SDS011;40241;52.684;9.758;2023-07-28T14:00:05;2.37;;;2.23;;
5650;SDS011;40241;52.684;9.758;2023-07-28T14:02:39;3.03;;;2.70;;
5650;SDS011;40241;52.684;9.758;2023-07-28T14:05:35;2.40;;;2.27;;
5650;SDS011;40241;52.684;9.758;2023-07-28T14:08:01;2.23;;;2.10;;
5650;SDS011;40241;52.684;9.758;2023-07-28T14:10:26;2.40;;;2.20;;
5650;SDS011;40241;52.684;9.758;2023-07-28T14:12:52;3.00;;;2.50;;
5650;SDS011;40241;52.684;9.758;2023-07-28T14:15:17;2.43;;;2.27;;
5650;SDS011;40241;52.684;9.758;2023-07-28T14:17:43;2.43;;;2.33;;
5650;SDS011;40241;52.684;9.758;2023-07-28T14:20:08;2.83;;;2.63;;
5650;SDS011;40241;52.684;9.758;2023-07-28T14:22:34;3.97;;;2.60;;
5650;SDS011;40241;52.684;9.758;2023-07-28T14:25:00;2.80;;;2.60;;
5650;SDS011;40241;52.684;9.758;2023-07-28T14:27:25;2.60;;;2.50;;
5650;SDS011;40241;52.684;9.758;2023-07-28T14:29:53;2.70;;;2.57;;
5650;SDS011;40241;52.684;9.758;2023-07-28T14:32:18;2.47;;;2.33;;
5650;SDS011;40241;52.684;9.758;2023-07-28T14:34:46;4.07;;;2.70;;
5650;SDS011;40241;52.684;9.758;2023-07-28T14:37:11;3.40;;;3.20;;
5650;SDS011;40241;52.684;9.758;2023-07-28T14:39:37;3.20;;;3.00;;
5650;SDS011;40241;52.684;9.758;2023-07-28T14:42:05;3.03;;;2.83;;
5650;SDS011;40241;52.684;9.758;2023-07-28T14:44:31;4.73;;;2.97;;
5650;SDS011;40241;52.684;9.758;2023-07-28T14:46:59;3.30;;;3.00;;
5650;SDS011;40241;52.684;9.758;2023-07-28T14:49:24;3.60;;;3.30;;
5650;SDS011;40241;52.684;9.758;2023-07-28T14:51:53;3.80;;;2.73;;
5650;SDS011;40241;52.684;9.758;2023-07-28T14:54:19;3.60;;;2.80;;
5650;SDS011;40241;52.684;9.758;2023-07-28T14:56:44;3.40;;;3.10;;
5650;SDS011;40241;52.684;9.758;2023-07-28T14:59:12;3.60;;;2.90;;
5650;SDS011;40241;52.684;9.758;2023-07-28T15:01:55;3.37;;;3.17;;
5650;SDS011;40241;52.684;9.758;2023-07-28T15:04:20;3.37;;;3.03;;
5650;SDS011;40241;52.684;9.758;2023-07-28T15:06:46;3.00;;;2.70;;